Time;durP1;ratioP1;P1;durP2;ratioP2;P2;SDS_P1;SDS_P2;PMS_P1;PMS_P2;Temp;Humidity;BMP_temperature;BMP_pressure;BME280_temperature;BME280_humidity;BME280_pressure;Samples;Min_cycle;Max_cycle;Signal;HPM_P1;HPM_P2
2023/05/16 00:00:40;;;;;;;7.50;2.35;;;9.70;99.90;;;;;;5070461;28;20882;-60
2023/05/16 00:03:08;;;;;;;6.03;2.20;;;9.80;99.90;;;;;;5063527;28;20036;-60
2023/05/16 00:05:35;;;;;;;4.75;2.63;;;9.80;99.90;;;;;;5070009;28;20060;-63
2023/05/16 00:08:02;;;;;;;17.55;2.88;;;9.90;99.90;;;;;;5072148;28;20514;-61
2023/05/16 00:10:29;;;;;;;7.28;2.60;;;9.80;99.90;;;;;;5070184;28;20556;-60
2023/05/16 00:12:56;;;;;;;9.52;2.63;;;9.80;99.90;;;;;;5070230;28;20054;-60
2023/05/16 00:15:23;;;;;;;8.05;3.08;;;9.80;99.90;;;;;;5070584;28;20317;-61
2023/05/16 00:17:50;;;;;;;6.32;3.17;;;9.80;99.90;;;;;;5070103;28;20063;-60
2023/05/16 00:20:17;;;;;;;14.00;2.97;;;9.80;99.90;;;;;;5052307;28;20342;-60
2023/05/16 00:22:45;;;;;;;7.63;2.40;;;9.80;99.90;;;;;;5071238;28;20139;-60
2023/05/16 00:25:11;;;;;;;16.13;2.55;;;9.80;99.90;;;;;;5069764;28;20105;-60
2023/05/16 00:27:38;;;;;;;7.78;2.78;;;9.70;99.90;;;;;;5069799;28;20072;-61
2023/05/16 00:30:06;;;;;;;11.98;3.17;;;9.70;99.90;;;;;;5056146;28;20114;-61
2023/05/16 00:32:33;;;;;;;7.18;2.78;;;9.70;99.90;;;;;;5069627;28;20072;-62
2023/05/16 00:34:59;;;;;;;7.40;3.28;;;9.70;99.90;;;;;;5069644;28;20044;-61
2023/05/16 00:37:26;;;;;;;10.02;2.45;;;9.70;99.90;;;;;;5069540;28;20563;-61
2023/05/16 00:39:53;;;;;;;12.45;2.20;;;9.70;99.90;;;;;;5069614;28;20048;-61
2023/05/16 00:42:20;;;;;;;7.93;3.63;;;9.70;99.90;;;;;;5069326;28;20140;-61
2023/05/16 00:44:47;;;;;;;6.70;2.60;;;9.70;99.90;;;;;;5080574;28;20518;-61
2023/05/16 00:47:14;;;;;;;8.32;3.20;;;9.80;99.90;;;;;;5069179;28;20139;-62
2023/05/16 00:49:41;;;;;;;9.40;2.38;;;9.80;99.90;;;;;;5069524;28;20499;-62
2023/05/16 00:52:07;;;;;;;7.35;2.72;;;9.80;99.90;;;;;;5069343;28;20293;-62
2023/05/16 00:54:34;;;;;;;9.20;3.40;;;9.90;99.90;;;;;;5073368;28;20044;-62
2023/05/16 00:57:02;;;;;;;14.48;3.15;;;10.00;99.90;;;;;;5069185;28;20067;-62
2023/05/16 00:59:29;;;;;;;10.23;2.95;;;10.00;99.90;;;;;;4705187;28;9999733;-61
2023/05/16 01:01:55;;;;;;;8.52;3.35;;;10.10;99.90;;;;;;5067162;28;20091;-62
2023/05/16 01:04:22;;;;;;;6.50;3.10;;;10.10;99.90;;;;;;5068693;28;20091;-62
2023/05/16 01:06:49;;;;;;;7.78;3.50;;;10.10;99.90;;;;;;5069359;28;20515;-61
2023/05/16 01:09:16;;;;;;;15.73;4.03;;;10.10;99.90;;;;;;5062528;28;20048;-62
2023/05/16 01:11:45;;;;;;;14.20;3.50;;;10.10;99.90;;;;;;5069387;28;20037;-63
2023/05/16 01:14:36;;;;;;;8.73;2.30;;;10.10;99.90;;;;;;5062966;28;20083;-62
2023/05/16 01:17:14;;;;;;;8.02;3.20;;;10.20;99.90;;;;;;5068722;28;20618;-63
2023/05/16 01:19:59;;;;;;;13.77;4.50;;;10.10;99.90;;;;;;5069169;28;20127;-61
2023/05/16 01:22:41;;;;;;;10.98;2.95;;;10.10;99.90;;;;;;5047958;28;20124;-62
2023/05/16 01:25:13;;;;;;;7.88;2.78;;;10.10;99.90;;;;;;5052118;28;20045;-62
2023/05/16 01:27:40;;;;;;;5.07;2.45;;;10.00;99.90;;;;;;5069131;28;20111;-62
2023/05/16 01:30:16;;;;;;;7.50;2.80;;;10.00;99.90;;;;;;5062830;28;20048;-62
2023/05/16 01:32:43;;;;;;;9.38;3.08;;;9.90;99.90;;;;;;5031898;28;20045;-62
2023/05/16 01:35:12;;;;;;;11.55;2.95;;;9.80;99.90;;;;;;5049479;28;20072;-61
2023/05/16 01:37:48;;;;;;;9.27;2.75;;;9.80;99.90;;;;;;5065942;28;20051;-61
2023/05/16 01:40:18;;;;;;;6.07;3.17;;;9.80;99.90;;;;;;5030692;28;20084;-62
2023/05/16 01:42:45;;;;;;;8.10;3.45;;;9.90;99.90;;;;;;5068861;28;20055;-61
2023/05/16 01:45:13;;;;;;;6.13;3.38;;;9.80;99.90;;;;;;5071109;28;20051;-61
2023/05/16 01:47:41;;;;;;;6.60;3.47;;;9.80;99.90;;;;;;5063349;28;20044;-62
2023/05/16 01:50:17;;;;;;;6.03;3.47;;;9.80;99.90;;;;;;5064085;28;20066;-61
2023/05/16 01:52:46;;;;;;;8.48;3.50;;;9.90;99.90;;;;;;5068942;28;20131;-61
2023/05/16 01:55:24;;;;;;;8.07;3.20;;;9.90;99.90;;;;;;5068240;28;20041;-61
2023/05/16 01:57:51;;;;;;;6.70;2.85;;;9.90;99.90;;;;;;5025633;28;20048;-60
2023/05/16 02:00:19;;;;;;;11.27;3.13;;;9.90;99.90;;;;;;5067721;28;20127;-61
2023/05/16 02:02:46;;;;;;;11.18;3.47;;;9.90;99.90;;;;;;5038308;28;20084;-61
2023/05/16 02:05:13;;;;;;;8.93;2.83;;;9.90;99.90;;;;;;5054266;28;20064;-63
2023/05/16 02:07:40;;;;;;;6.35;2.78;;;9.90;99.90;;;;;;5068449;28;20053;-61
2023/05/16 02:10:07;;;;;;;14.27;4.10;;;9.80;99.90;;;;;;5075141;28;20385;-61
2023/05/16 02:12:34;;;;;;;9.07;3.17;;;9.70;99.90;;;;;;5068312;28;20054;-61
2023/05/16 02:15:00;;;;;;;12.18;3.17;;;9.60;99.90;;;;;;5067692;28;20288;-60
2023/05/16 02:17:27;;;;;;;13.55;3.28;;;9.60;99.90;;;;;;5068010;28;20135;-60
2023/05/16 02:19:54;;;;;;;6.57;2.85;;;9.60;99.90;;;;;;5068427;28;20076;-60
2023/05/16 02:22:21;;;;;;;7.40;2.85;;;9.40;99.90;;;;;;5067545;28;20049;-60
2023/05/16 02:24:47;;;;;;;7.38;3.17;;;9.40;99.90;;;;;;5068169;28;20106;-60
2023/05/16 02:27:14;;;;;;;8.23;2.78;;;9.40;99.90;;;;;;5062141;28;20052;-61
2023/05/16 02:29:41;;;;;;;11.57;4.03;;;9.30;99.90;;;;;;5067617;28;20590;-60
2023/05/16 02:32:07;;;;;;;9.93;2.90;;;9.20;99.90;;;;;;5067465;28;20044;-61
2023/05/16 02:34:34;;;;;;;9.02;3.47;;;9.30;99.90;;;;;;5082625;28;20052;-60
2023/05/16 02:37:01;;;;;;;7.75;2.80;;;9.30;99.90;;;;;;5067509;28;20040;-60
2023/05/16 02:39:28;;;;;;;7.75;3.47;;;9.30;99.90;;;;;;5053538;28;20095;-60
2023/05/16 02:41:55;;;;;;;6.88;3.00;;;9.30;99.90;;;;;;5067695;28;20044;-61
2023/05/16 02:44:22;;;;;;;11.80;3.20;;;9.20;99.90;;;;;;5067222;28;20147;-61
2023/05/16 02:46:49;;;;;;;6.38;2.95;;;9.20;99.90;;;;;;5067737;28;20041;-61
2023/05/16 02:49:16;;;;;;;7.80;2.45;;;9.10;99.90;;;;;;5066804;28;20546;-61
2023/05/16 02:51:43;;;;;;;6.85;2.85;;;9.10;99.90;;;;;;5067127;28;20037;-61
2023/05/16 02:54:09;;;;;;;10.55;2.55;;;9.00;99.90;;;;;;5067339;28;20146;-61
2023/05/16 02:56:36;;;;;;;8.05;2.65;;;9.00;99.90;;;;;;5067430;28;20044;-61
2023/05/16 02:59:03;;;;;;;9.43;2.88;;;9.00;99.90;;;;;;5057364;28;20040;-61
2023/05/16 03:01:30;;;;;;;8.77;2.33;;;8.90;99.90;;;;;;5066556;28;20507;-60
2023/05/16 03:03:57;;;;;;;8.45;2.58;;;8.90;99.90;;;;;;5063878;28;20483;-60
2023/05/16 03:06:24;;;;;;;7.05;2.33;;;8.90;99.90;;;;;;5067447;28;20056;-61
2023/05/16 03:08:50;;;;;;;7.88;2.70;;;8.80;99.90;;;;;;5066934;28;20558;-61
2023/05/16 03:11:22;;;;;;;7.05;2.90;;;8.80;99.90;;;;;;5067087;28;20051;-60
2023/05/16 03:13:49;;;;;;;6.60;2.67;;;8.70;99.90;;;;;;5061851;28;20106;-61
2023/05/16 03:16:16;;;;;;;7.65;2.80;;;8.60;99.90;;;;;;5067447;28;20402;-61
2023/05/16 03:18:43;;;;;;;9.98;2.83;;;8.60;99.90;;;;;;5066992;28;20044;-61
2023/05/16 03:21:10;;;;;;;5.80;2.40;;;8.50;99.90;;;;;;5066920;28;20136;-61
2023/05/16 03:23:36;;;;;;;6.45;2.88;;;8.60;99.90;;;;;;5066914;28;20048;-61
2023/05/16 03:26:03;;;;;;;6.82;2.60;;;8.60;99.90;;;;;;5066566;28;20411;-61
2023/05/16 03:28:30;;;;;;;7.18;3.15;;;8.50;99.90;;;;;;5053579;28;20414;-60
2023/05/16 03:30:57;;;;;;;12.15;3.40;;;8.50;99.90;;;;;;5067483;28;20442;-60
2023/05/16 03:33:24;;;;;;;4.70;2.10;;;8.50;99.90;;;;;;5066725;28;20135;-61
2023/05/16 03:35:51;;;;;;;7.25;2.72;;;8.50;99.90;;;;;;5067396;28;20076;-60
2023/05/16 03:38:17;;;;;;;8.93;2.70;;;8.50;99.90;;;;;;5066329;28;20589;-61
2023/05/16 03:40:44;;;;;;;9.27;2.45;;;8.40;99.90;;;;;;5066997;28;20488;-61
2023/05/16 03:43:11;;;;;;;12.73;3.92;;;8.40;99.90;;;;;;5066427;28;20047;-60
2023/05/16 03:45:39;;;;;;;11.43;2.70;;;8.30;99.90;;;;;;5067000;28;20439;-60
2023/05/16 03:48:07;;;;;;;7.03;2.40;;;8.30;99.90;;;;;;5066431;28;20048;-60
2023/05/16 03:50:36;;;;;;;7.78;2.55;;;8.30;99.90;;;;;;5077123;28;20435;-60
2023/05/16 03:53:05;;;;;;;7.53;2.50;;;8.30;99.90;;;;;;5073575;28;20068;-61
2023/05/16 03:55:32;;;;;;;10.00;3.55;;;8.30;99.90;;;;;;5053586;28;20055;-61
2023/05/16 03:57:59;;;;;;;9.68;2.60;;;8.20;99.90;;;;;;5066660;28;20068;-61
2023/05/16 04:00:26;;;;;;;8.50;3.17;;;8.20;99.90;;;;;;5066842;28;20500;-61
2023/05/16 04:02:53;;;;;;;4.38;2.00;;;8.20;99.90;;;;;;5070293;28;20439;-61
2023/05/16 04:05:19;;;;;;;6.05;2.97;;;8.20;99.90;;;;;;5067600;28;20184;-61
2023/05/16 04:07:46;;;;;;;10.90;2.45;;;8.20;99.90;;;;;;5070672;28;20539;-61
2023/05/16 04:10:13;;;;;;;8.63;2.65;;;8.10;99.90;;;;;;5069679;28;20048;-60
2023/05/16 04:12:40;;;;;;;6.07;2.40;;;8.10;99.90;;;;;;5070751;28;20124;-60
2023/05/16 04:15:07;;;;;;;9.70;2.47;;;8.10;99.90;;;;;;5069671;28;20487;-61
2023/05/16 04:17:34;;;;;;;7.75;2.20;;;8.10;99.90;;;;;;5070616;28;20044;-61
2023/05/16 04:20:02;;;;;;;6.47;2.22;;;8.00;99.90;;;;;;5056133;28;20044;-60
2023/05/16 04:22:29;;;;;;;10.02;2.58;;;8.00;99.90;;;;;;5070244;28;20129;-60
2023/05/16 04:24:57;;;;;;;7.00;2.25;;;8.00;99.90;;;;;;5069900;28;20466;-61
2023/05/16 04:27:25;;;;;;;7.82;2.50;;;8.00;99.90;;;;;;5070088;28;20098;-61
2023/05/16 04:29:52;;;;;;;3.55;1.83;;;8.10;99.90;;;;;;5068949;28;20136;-60
2023/05/16 04:32:19;;;;;;;9.10;2.58;;;8.10;99.90;;;;;;5058330;28;20234;-60
2023/05/16 04:34:47;;;;;;;10.57;2.95;;;8.10;99.90;;;;;;5069736;28;20048;-60
2023/05/16 04:37:14;;;;;;;4.95;2.20;;;8.10;99.90;;;;;;5069665;28;20199;-59
2023/05/16 04:39:41;;;;;;;9.68;3.60;;;8.10;99.90;;;;;;5069327;28;20044;-60
2023/05/16 04:42:08;;;;;;;5.72;2.50;;;8.10;99.90;;;;;;5069273;28;20041;-60
2023/05/16 04:44:35;;;;;;;7.75;2.35;;;8.10;99.90;;;;;;5069836;28;20054;-61
2023/05/16 04:47:01;;;;;;;9.40;3.05;;;8.00;99.90;;;;;;5069127;28;20093;-61
2023/05/16 04:49:28;;;;;;;12.38;3.08;;;8.00;99.90;;;;;;5080737;28;20086;-60
2023/05/16 04:51:55;;;;;;;3.67;2.05;;;7.90;99.90;;;;;;5059309;28;20091;-61
2023/05/16 04:54:22;;;;;;;6.95;2.67;;;8.00;99.90;;;;;;5069388;28;20044;-61
2023/05/16 04:56:49;;;;;;;9.60;2.78;;;8.00;99.90;;;;;;5069073;28;20048;-60
2023/05/16 04:59:16;;;;;;;9.73;2.50;;;8.00;99.90;;;;;;5069014;28;20070;-60
2023/05/16 05:01:42;;;;;;;8.65;3.25;;;8.10;99.90;;;;;;5069019;28;20072;-61
2023/05/16 05:04:09;;;;;;;7.15;2.47;;;8.20;99.90;;;;;;5068853;28;20055;-61
2023/05/16 05:06:36;;;;;;;8.20;2.35;;;8.20;99.90;;;;;;5063496;28;20083;-60
2023/05/16 05:09:04;;;;;;;10.60;3.42;;;8.30;99.90;;;;;;5068780;28;20045;-60
2023/05/16 05:11:31;;;;;;;17.25;3.78;;;8.40;99.90;;;;;;5068817;28;20053;-60
2023/05/16 05:13:58;;;;;;;7.82;3.28;;;8.40;99.90;;;;;;5068045;28;20566;-60
2023/05/16 05:16:25;;;;;;;9.55;3.40;;;8.40;99.90;;;;;;5066955;28;20497;-60
2023/05/16 05:18:51;;;;;;;12.95;3.55;;;8.50;99.90;;;;;;5068755;28;20045;-60
2023/05/16 05:21:19;;;;;;;9.85;3.13;;;8.50;99.90;;;;;;5068607;28;20367;-60
2023/05/16 05:23:48;;;;;;;10.45;3.20;;;8.60;99.90;;;;;;5068882;28;20045;-61
2023/05/16 05:26:15;;;;;;;10.68;4.30;;;8.60;99.90;;;;;;5068384;28;20090;-61
2023/05/16 05:28:42;;;;;;;8.02;3.97;;;8.60;99.90;;;;;;5068782;28;20127;-61
2023/05/16 05:31:19;;;;;;;5.82;2.90;;;8.70;99.90;;;;;;5068202;28;20041;-61
2023/05/16 05:33:46;;;;;;;8.02;3.03;;;8.70;99.90;;;;;;5068683;28;20311;-61
2023/05/16 05:36:13;;;;;;;7.10;2.65;;;8.70;99.90;;;;;;5068450;28;20203;-61
2023/05/16 05:38:40;;;;;;;7.57;2.90;;;8.70;99.90;;;;;;5073302;28;20098;-61
2023/05/16 05:41:07;;;;;;;8.25;3.13;;;8.80;99.90;;;;;;5078617;28;20055;-61
2023/05/16 05:43:34;;;;;;;12.30;3.28;;;8.90;99.90;;;;;;5072554;28;20470;-61
2023/05/16 05:46:01;;;;;;;11.88;2.50;;;8.90;99.90;;;;;;5078248;28;20103;-61
2023/05/16 05:48:28;;;;;;;7.28;3.70;;;9.00;99.90;;;;;;5074555;28;20118;-61
2023/05/16 05:50:55;;;;;;;7.35;2.88;;;9.00;99.90;;;;;;5079626;28;20507;-61
2023/05/16 05:53:22;;;;;;;10.75;3.17;;;9.00;99.90;;;;;;5055712;28;20049;-61
2023/05/16 05:55:49;;;;;;;21.67;2.78;;;9.10;99.90;;;;;;5068500;28;20041;-61
2023/05/16 05:58:17;;;;;;;20.90;3.55;;;9.10;99.90;;;;;;5067339;28;20048;-61
2023/05/16 06:00:43;;;;;;;10.10;2.55;;;9.20;99.90;;;;;;5068216;28;20048;-61
2023/05/16 06:03:10;;;;;;;10.68;2.53;;;9.30;99.90;;;;;;5067556;28;20526;-61
2023/05/16 06:05:37;;;;;;;7.60;2.97;;;9.20;99.90;;;;;;5063426;28;20056;-60
2023/05/16 06:08:04;;;;;;;9.32;2.83;;;9.30;99.90;;;;;;5047300;28;20049;-60
2023/05/16 06:10:31;;;;;;;12.35;3.63;;;9.30;99.90;;;;;;5046051;28;20060;-60
2023/05/16 06:12:57;;;;;;;6.65;2.38;;;9.40;99.90;;;;;;5046238;28;20049;-60
2023/05/16 06:15:25;;;;;;;9.77;3.50;;;9.50;99.90;;;;;;5046363;28;20049;-60
2023/05/16 06:17:52;;;;;;;7.45;2.75;;;9.50;99.90;;;;;;5046811;28;20095;-61
2023/05/16 06:20:19;;;;;;;13.45;3.33;;;9.50;99.90;;;;;;5046832;28;20135;-60
2023/05/16 06:22:46;;;;;;;7.70;2.47;;;9.60;99.90;;;;;;5047469;28;20518;-60
2023/05/16 06:25:12;;;;;;;14.05;2.35;;;9.60;99.90;;;;;;5046281;28;20049;-60
2023/05/16 06:27:39;;;;;;;12.65;2.78;;;9.70;99.90;;;;;;5052276;28;20044;-60
2023/05/16 06:30:07;;;;;;;16.95;3.75;;;9.80;99.90;;;;;;5050802;28;20049;-60
2023/05/16 06:32:34;;;;;;;13.73;2.92;;;9.90;99.90;;;;;;5062299;28;20539;-60
2023/05/16 06:35:01;;;;;;;18.67;4.43;;;10.00;99.90;;;;;;5046557;28;20495;-61
2023/05/16 06:37:28;;;;;;;9.73;2.28;;;10.00;99.90;;;;;;5046899;28;20124;-60
2023/05/16 06:39:55;;;;;;;9.48;2.92;;;10.00;99.90;;;;;;5046620;28;20044;-60
2023/05/16 06:42:22;;;;;;;11.95;2.33;;;10.20;99.90;;;;;;5045467;28;20136;-61
2023/05/16 06:44:49;;;;;;;16.08;2.22;;;10.30;99.90;;;;;;5046254;28;20044;-61
2023/05/16 06:47:16;;;;;;;14.20;3.95;;;10.30;99.90;;;;;;5046655;28;20471;-60
2023/05/16 06:49:42;;;;;;;14.63;2.47;;;10.30;99.90;;;;;;4694157;28;9999732;-61
2023/05/16 06:52:10;;;;;;;14.05;3.20;;;10.30;99.90;;;;;;5043892;28;20048;-61
2023/05/16 06:54:37;;;;;;;10.02;2.15;;;10.50;99.90;;;;;;5043511;28;20045;-60
2023/05/16 06:57:04;;;;;;;16.15;2.92;;;10.60;99.90;;;;;;5043803;28;20123;-61
2023/05/16 06:59:31;;;;;;;8.50;2.58;;;10.70;99.90;;;;;;5044153;28;20057;-61
2023/05/16 07:01:58;;;;;;;14.02;2.35;;;10.70;99.90;;;;;;5044012;28;20424;-61
2023/05/16 07:04:25;;;;;;;7.10;2.28;;;10.70;99.90;;;;;;5046533;28;20103;-61
2023/05/16 07:06:52;;;;;;;7.65;2.10;;;10.70;99.90;;;;;;5063950;28;20049;-61
2023/05/16 07:09:20;;;;;;;12.50;2.60;;;10.80;99.90;;;;;;5063482;28;20052;-62
2023/05/16 07:11:46;;;;;;;10.82;2.00;;;10.90;99.90;;;;;;5063568;28;20055;-61
2023/05/16 07:14:13;;;;;;;13.35;2.25;;;10.90;99.90;;;;;;5063891;28;20098;-61
2023/05/16 07:16:40;;;;;;;11.98;3.42;;;11.00;99.90;;;;;;5063776;28;20052;-61
2023/05/16 07:19:07;;;;;;;12.98;2.35;;;11.10;99.90;;;;;;5078356;28;20061;-62
2023/05/16 07:21:34;;;;;;;15.57;4.15;;;11.20;99.90;;;;;;5063677;28;20056;-60
2023/05/16 07:24:01;;;;;;;9.50;2.95;;;11.20;99.90;;;;;;5063847;28;20045;-59
2023/05/16 07:26:28;;;;;;;8.55;2.28;;;11.20;99.90;;;;;;5050611;28;20052;-61
2023/05/16 07:28:55;;;;;;;11.30;2.58;;;11.30;99.90;;;;;;5064042;28;20487;-61
2023/05/16 07:31:23;;;;;;;12.50;2.17;;;11.40;99.90;;;;;;5063144;28;20083;-61
2023/05/16 07:33:50;;;;;;;11.45;2.75;;;11.40;99.90;;;;;;5063905;28;20051;-63
2023/05/16 07:36:16;;;;;;;9.02;2.38;;;11.50;99.90;;;;;;5063854;28;20201;-60
2023/05/16 07:38:43;;;;;;;7.40;1.88;;;11.50;99.90;;;;;;5066937;28;20380;-61
2023/05/16 07:41:11;;;;;;;10.13;2.70;;;11.50;99.90;;;;;;5065649;28;20087;-61
2023/05/16 07:43:37;;;;;;;12.65;2.42;;;11.60;99.90;;;;;;5077474;28;20666;-60
2023/05/16 07:46:04;;;;;;;11.38;2.55;;;11.70;99.90;;;;;;5066397;28;20064;-61
2023/05/16 07:48:31;;;;;;;10.38;2.40;;;11.70;99.90;;;;;;5067019;28;20084;-60
2023/05/16 07:50:58;;;;;;;7.68;2.30;;;11.80;99.90;;;;;;5067087;28;20052;-60
2023/05/16 07:53:25;;;;;;;13.13;3.53;;;11.70;99.90;;;;;;5043060;28;20040;-59
2023/05/16 07:55:52;;;;;;;8.98;1.92;;;11.90;99.90;;;;;;5067786;28;20562;-60
2023/05/16 07:58:18;;;;;;;8.02;1.90;;;12.00;99.90;;;;;;5067266;28;20264;-61
2023/05/16 08:00:45;;;;;;;12.13;2.45;;;12.20;99.90;;;;;;5068023;28;20095;-60
2023/05/16 08:03:12;;;;;;;6.60;1.75;;;12.30;99.90;;;;;;5061506;28;20072;-61
2023/05/16 08:05:39;;;;;;;12.38;1.65;;;12.40;99.90;;;;;;5067362;28;20383;-60
2023/05/16 08:08:06;;;;;;;12.60;2.22;;;12.40;99.90;;;;;;5067067;28;20056;-61
2023/05/16 08:10:33;;;;;;;10.43;1.88;;;12.50;99.90;;;;;;5056028;28;20044;-61
2023/05/16 08:12:59;;;;;;;15.43;2.92;;;12.60;99.90;;;;;;5058219;28;20101;-61
2023/05/16 08:15:26;;;;;;;10.10;2.47;;;12.60;99.90;;;;;;5067210;28;20506;-60
2023/05/16 08:17:56;;;;;;;9.52;1.83;;;12.80;99.90;;;;;;5061660;28;20449;-59
2023/05/16 08:20:23;;;;;;;13.35;2.40;;;12.70;99.90;;;;;;5053075;28;20443;-60
2023/05/16 08:22:51;;;;;;;9.75;2.17;;;12.80;99.90;;;;;;5067106;28;20068;-59
2023/05/16 08:25:18;;;;;;;8.95;1.73;;;12.90;99.90;;;;;;5067301;28;20396;-59
2023/05/16 08:27:45;;;;;;;8.35;2.75;;;12.90;99.90;;;;;;5064452;28;20525;-61
2023/05/16 08:30:13;;;;;;;8.98;3.03;;;13.00;99.90;;;;;;5066489;28;20569;-60
2023/05/16 08:32:40;;;;;;;5.55;1.85;;;13.10;99.90;;;;;;5046625;28;20105;-60
2023/05/16 08:35:07;;;;;;;12.40;2.17;;;13.00;99.90;;;;;;5066657;28;20507;-60
2023/05/16 08:37:34;;;;;;;7.45;1.15;;;12.90;99.90;;;;;;5065663;28;20096;-60
2023/05/16 08:40:00;;;;;;;16.83;2.90;;;12.80;99.90;;;;;;5066356;28;20049;-60
2023/05/16 08:42:27;;;;;;;19.40;2.42;;;12.80;99.90;;;;;;5063550;28;20044;-59
2023/05/16 08:44:54;;;;;;;13.73;2.05;;;13.10;99.90;;;;;;5067100;28;20118;-60
2023/05/16 08:47:21;;;;;;;9.20;2.33;;;13.20;99.90;;;;;;5062346;28;20052;-60
2023/05/16 08:49:48;;;;;;;7.55;2.08;;;13.10;99.90;;;;;;5037147;28;20126;-60
2023/05/16 08:52:17;;;;;;;7.30;2.15;;;13.20;99.90;;;;;;5048917;28;20561;-60
2023/05/16 08:54:44;;;;;;;12.65;2.00;;;13.40;99.90;;;;;;5069769;28;20125;-60
2023/05/16 08:57:21;;;;;;;8.50;1.92;;;13.50;99.90;;;;;;5064343;28;20060;-60
2023/05/16 08:59:47;;;;;;;13.50;2.00;;;13.50;99.90;;;;;;5066443;28;20541;-60
2023/05/16 09:02:14;;;;;;;14.32;2.22;;;13.40;99.90;;;;;;5079043;28;20052;-60
2023/05/16 09:04:41;;;;;;;13.10;1.63;;;13.50;99.90;;;;;;5066280;28;20052;-60
2023/05/16 09:07:08;;;;;;;7.30;1.65;;;13.60;99.90;;;;;;5054330;28;20044;-60
2023/05/16 09:09:35;;;;;;;11.27;1.95;;;13.70;99.90;;;;;;5068403;28;20052;-60
2023/05/16 09:12:02;;;;;;;9.00;1.83;;;13.80;99.90;;;;;;5075515;28;20051;-60
2023/05/16 09:14:28;;;;;;;8.30;1.70;;;13.90;99.90;;;;;;5068431;28;20051;-60
2023/05/16 09:17:06;;;;;;;12.48;2.30;;;13.90;99.90;;;;;;5061124;28;20048;-59
2023/05/16 09:19:39;;;;;;;7.78;1.85;;;14.00;99.90;;;;;;5068711;28;20044;-59
2023/05/16 09:22:12;;;;;;;6.78;1.30;;;14.00;99.90;;;;;;5057194;28;20044;-59
2023/05/16 09:24:43;;;;;;;10.68;1.63;;;13.90;99.90;;;;;;5067450;28;20049;-59
2023/05/16 09:27:14;;;;;;;11.90;2.05;;;14.00;99.90;;;;;;5057314;28;20343;-60
2023/05/16 09:29:45;;;;;;;5.15;1.30;;;14.10;99.90;;;;;;5068564;28;20052;-62
2023/05/16 09:32:13;;;;;;;8.50;1.80;;;14.10;99.90;;;;;;5061553;28;20048;-58
2023/05/16 09:34:44;;;;;;;9.68;1.60;;;14.20;99.90;;;;;;5033678;28;20090;-60
2023/05/16 09:37:11;;;;;;;11.30;2.17;;;14.40;99.90;;;;;;5038986;28;20492;-60
2023/05/16 09:39:40;;;;;;;7.95;1.65;;;14.40;99.90;;;;;;5068198;28;20045;-60
2023/05/16 09:42:11;;;;;;;12.02;2.40;;;14.30;99.90;;;;;;5071311;28;20446;-60
2023/05/16 09:44:38;;;;;;;12.77;2.33;;;14.50;99.90;;;;;;5066984;28;20122;-60
2023/05/16 09:47:05;;;;;;;6.45;1.20;;;14.60;99.90;;;;;;5062192;28;20507;-60
2023/05/16 09:49:32;;;;;;;6.45;1.30;;;14.70;99.90;;;;;;5066848;28;20049;-60
2023/05/16 09:52:00;;;;;;;8.13;1.88;;;15.00;99.90;;;;;;5067912;28;20048;-60
2023/05/16 09:54:31;;;;;;;9.75;1.52;;;15.30;99.90;;;;;;5050341;28;20051;-60
2023/05/16 09:56:59;;;;;;;8.60;1.42;;;15.70;99.90;;;;;;5067930;28;20052;-60
2023/05/16 09:59:37;;;;;;;11.63;1.73;;;16.10;99.90;;;;;;5066900;28;20045;-60
2023/05/16 10:02:07;;;;;;;5.82;1.95;;;16.40;99.90;;;;;;5067163;28;20056;-60
2023/05/16 10:04:34;;;;;;;7.63;1.80;;;16.70;99.90;;;;;;5082379;28;20044;-60
2023/05/16 10:07:02;;;;;;;11.45;1.90;;;16.50;99.90;;;;;;5067363;28;20040;-61
2023/05/16 10:09:32;;;;;;;6.28;1.20;;;16.10;99.90;;;;;;5067141;28;20072;-60
2023/05/16 10:12:04;;;;;;;6.45;2.15;;;15.80;99.90;;;;;;5067284;28;20094;-59
2023/05/16 10:14:35;;;;;;;12.82;1.92;;;15.80;99.90;;;;;;5078131;28;20040;-58
2023/05/16 10:17:06;;;;;;;16.63;1.98;;;16.10;99.90;;;;;;5061381;28;20572;-60
2023/05/16 10:19:35;;;;;;;6.15;1.50;;;16.40;99.10;;;;;;5067136;28;20532;-60
2023/05/16 10:22:03;;;;;;;12.70;2.83;;;16.40;97.80;;;;;;5053283;28;20037;-60
2023/05/16 10:24:43;;;;;;;7.28;1.48;;;16.60;96.90;;;;;;5067151;28;20450;-60
2023/05/16 10:27:11;;;;;;;9.27;1.30;;;16.90;97.60;;;;;;5066916;28;20052;-60
2023/05/16 10:29:37;;;;;;;6.75;1.35;;;17.00;97.40;;;;;;5057632;28;20048;-60
2023/05/16 10:32:20;;;;;;;6.18;1.58;;;16.70;94.50;;;;;;5067270;28;20048;-60
2023/05/16 10:34:47;;;;;;;9.18;1.38;;;16.40;96.80;;;;;;5058539;28;20053;-59
2023/05/16 10:37:13;;;;;;;4.93;1.48;;;15.90;96.40;;;;;;5066581;28;20572;-61
2023/05/16 10:39:40;;;;;;;5.32;1.33;;;16.10;96.10;;;;;;5067338;28;20050;-61
2023/05/16 10:42:07;;;;;;;6.18;1.33;;;16.70;98.20;;;;;;5066429;28;20091;-63
2023/05/16 10:44:34;;;;;;;3.88;1.38;;;17.30;96.00;;;;;;5038211;28;20055;-61
2023/05/16 10:47:03;;;;;;;6.95;1.38;;;17.40;95.80;;;;;;5049310;28;20059;-62
2023/05/16 10:49:30;;;;;;;14.43;1.63;;;17.00;93.50;;;;;;5076499;28;20504;-60
2023/05/16 10:52:12;;;;;;;8.27;1.85;;;16.90;93.90;;;;;;5049504;28;20099;-60
2023/05/16 10:54:43;;;;;;;11.18;1.75;;;16.80;93.70;;;;;;5063939;28;20041;-61
2023/05/16 10:57:16;;;;;;;6.32;2.05;;;16.70;95.40;;;;;;5066731;28;20241;-60
2023/05/16 10:59:44;;;;;;;4.15;1.15;;;16.30;93.70;;;;;;5066333;28;20515;-60
2023/05/16 11:02:32;;;;;;;5.60;1.15;;;16.30;93.40;;;;;;5066723;28;20064;-60
2023/05/16 11:05:00;;;;;;;5.45;1.40;;;16.10;92.80;;;;;;5063270;28;20079;-60
2023/05/16 11:07:34;;;;;;;7.85;1.75;;;16.00;95.10;;;;;;5066034;28;20609;-59
2023/05/16 11:10:08;;;;;;;11.05;1.50;;;16.10;95.60;;;;;;4712377;28;10001130;-60
2023/05/16 11:12:45;;;;;;;8.20;2.00;;;16.40;96.00;;;;;;5070024;28;20122;-60
2023/05/16 11:15:23;;;;;;;5.10;1.50;;;16.40;94.30;;;;;;5073720;28;20041;-60
2023/05/16 11:18:11;;;;;;;10.50;2.40;;;16.40;93.30;;;;;;5070562;28;20068;-60
2023/05/16 11:20:38;;;;;;;8.20;1.08;;;16.40;94.10;;;;;;5068287;28;20048;-60
2023/05/16 11:23:20;;;;;;;8.23;1.77;;;16.40;93.00;;;;;;5070724;28;20040;-60
2023/05/16 11:25:52;;;;;;;7.07;1.23;;;16.20;91.60;;;;;;5070378;28;20048;-59
2023/05/16 11:28:19;;;;;;;7.15;1.77;;;16.20;92.20;;;;;;5070380;28;20104;-60
2023/05/16 11:30:48;;;;;;;4.97;1.13;;;16.30;91.20;;;;;;5071093;28;20079;-60
2023/05/16 11:33:15;;;;;;;8.77;1.25;;;16.20;92.80;;;;;;5071117;28;20074;-60
2023/05/16 11:35:42;;;;;;;7.22;1.88;;;16.30;92.80;;;;;;5064929;28;20048;-60
2023/05/16 11:38:15;;;;;;;11.35;1.77;;;16.30;92.80;;;;;;5070355;28;20474;-60
2023/05/16 11:40:43;;;;;;;11.77;1.55;;;16.20;93.10;;;;;;5073574;28;20040;-60
2023/05/16 11:43:11;;;;;;;6.20;1.30;;;16.30;91.60;;;;;;5070436;28;20415;-60
2023/05/16 11:45:37;;;;;;;5.03;0.80;;;16.30;91.10;;;;;;5070286;28;20056;-60
2023/05/16 11:48:05;;;;;;;5.10;1.23;;;16.10;90.80;;;;;;5068736;28;20040;-60
2023/05/16 11:50:33;;;;;;;4.63;1.35;;;16.20;91.50;;;;;;5069718;28;20055;-60
2023/05/16 11:52:59;;;;;;;6.72;1.30;;;16.30;88.30;;;;;;5055347;28;20106;-60
2023/05/16 11:55:29;;;;;;;4.72;1.23;;;16.20;90.80;;;;;;5072653;28;20058;-61
2023/05/16 11:57:59;;;;;;;4.30;1.05;;;16.40;91.80;;;;;;5070367;28;20094;-60
2023/05/16 12:00:26;;;;;;;6.78;0.93;;;16.50;91.70;;;;;;5072673;28;20076;-60
2023/05/16 12:02:54;;;;;;;6.32;1.52;;;16.60;90.10;;;;;;5070245;28;20052;-60
2023/05/16 12:05:25;;;;;;;6.95;1.75;;;16.70;89.90;;;;;;5069365;28;20088;-60
2023/05/16 12:07:53;;;;;;;12.98;2.45;;;17.00;90.30;;;;;;5070101;28;20048;-61
2023/05/16 12:10:20;;;;;;;7.15;1.75;;;17.00;90.70;;;;;;5069099;28;20052;-61
2023/05/16 12:12:48;;;;;;;9.82;1.65;;;17.00;90.80;;;;;;5069703;28;20052;-60
2023/05/16 12:15:15;;;;;;;3.97;1.25;;;17.00;86.30;;;;;;5067567;28;20114;-60
2023/05/16 12:17:42;;;;;;;5.65;1.45;;;16.80;85.70;;;;;;5067668;28;20722;-60
2023/05/16 12:20:13;;;;;;;11.57;1.50;;;17.00;87.60;;;;;;5065429;28;20419;-61
2023/05/16 12:22:40;;;;;;;10.30;1.45;;;16.60;88.30;;;;;;5054355;28;20049;-59
2023/05/16 12:25:35;;;;;;;3.38;1.25;;;16.80;89.30;;;;;;5066869;28;20044;-61
2023/05/16 12:28:02;;;;;;;2.58;1.10;;;16.90;84.50;;;;;;5067079;28;20040;-60
2023/05/16 12:30:30;;;;;;;6.80;1.20;;;17.00;88.40;;;;;;5065018;28;20045;-60
2023/05/16 12:32:58;;;;;;;7.35;1.38;;;17.30;88.90;;;;;;5067143;28;20044;-60
2023/05/16 12:35:28;;;;;;;11.07;1.77;;;17.40;87.90;;;;;;5048934;28;20052;-60
2023/05/16 12:37:55;;;;;;;12.45;1.88;;;17.40;81.50;;;;;;5065575;28;20041;-60
2023/05/16 12:40:22;;;;;;;6.90;1.10;;;17.60;82.10;;;;;;5066344;28;20144;-60
2023/05/16 12:42:55;;;;;;;6.00;1.73;;;17.70;79.70;;;;;;5066450;28;20499;-60
2023/05/16 12:45:22;;;;;;;9.53;1.57;;;17.40;78.10;;;;;;5066856;28;20049;-60
2023/05/16 12:47:49;;;;;;;6.53;1.35;;;17.40;84.20;;;;;;5066409;28;20118;-60
2023/05/16 12:50:16;;;;;;;6.90;1.63;;;17.60;79.90;;;;;;5065308;28;20067;-60
2023/05/16 12:52:51;;;;;;;6.40;1.95;;;17.50;79.70;;;;;;5060638;28;20525;-60